Time;durP1;ratioP1;P1;durP2;ratioP2;P2;SDS_P1;SDS_P2;PMS_P1;PMS_P2;Temp;Humidity;BMP_temperature;BMP_pressure;BME280_temperature;BME280_humidity;BME280_pressure;Samples;Min_cycle;Max_cycle;Signal;HPM_P1;HPM_P2
2022/12/10 00:03:49;;;;;;;69.57;34.50;;;0.80;1.00;;;;;;8370278;28;20185;-79
2022/12/10 00:07:50;;;;;;;49.73;26.07;;;0.80;99.90;;;;;;8369426;28;20503;-80
2022/12/10 00:11:51;;;;;;;54.10;29.13;;;0.80;99.90;;;;;;8367809;28;20194;-78
2022/12/10 00:15:52;;;;;;;45.50;23.67;;;0.80;99.90;;;;;;8372061;28;20178;-75
2022/12/10 00:19:52;;;;;;;52.50;28.97;;;0.80;99.90;;;;;;8370923;28;20658;-78
2022/12/10 00:23:54;;;;;;;51.07;28.00;;;0.80;99.90;;;;;;8366626;28;20324;-75
2022/12/10 00:27:55;;;;;;;51.73;26.17;;;0.80;1.00;;;;;;8370315;28;20258;-77
2022/12/10 00:31:56;;;;;;;48.90;27.70;;;0.80;1.00;;;;;;8370660;28;20202;-77
2022/12/10 00:36:00;;;;;;;45.33;25.23;;;0.80;99.90;;;;;;8365946;28;20269;-75
2022/12/10 00:40:01;;;;;;;48.80;25.97;;;0.80;8.20;;;;;;8364869;28;20182;-78
2022/12/10 00:44:02;;;;;;;46.03;23.83;;;0.80;1.00;;;;;;8381399;28;20190;-79
2022/12/10 00:48:03;;;;;;;43.53;24.00;;;0.80;1.00;;;;;;8362805;28;20199;-75
2022/12/10 00:52:04;;;;;;;43.40;23.73;;;0.80;99.90;;;;;;8367285;28;20202;-74
2022/12/10 00:56:05;;;;;;;44.30;23.60;;;0.70;99.90;;;;;;8364575;28;20188;-74
2022/12/10 01:00:07;;;;;;;63.33;32.67;;;0.70;99.90;;;;;;8365194;28;20185;-77
2022/12/10 01:04:12;;;;;;;56.30;29.70;;;0.70;99.90;;;;;;8365847;28;20185;-75
2022/12/10 01:08:13;;;;;;;65.53;31.87;;;0.70;99.90;;;;;;8383922;28;20189;-77
2022/12/10 01:12:14;;;;;;;48.33;24.83;;;0.70;74.50;;;;;;8369005;28;20546;-79
2022/12/10 01:16:18;;;;;;;42.70;24.43;;;0.60;99.90;;;;;;8363828;28;20178;-78
2022/12/10 01:20:19;;;;;;;41.77;23.90;;;0.60;99.90;;;;;;8368060;28;20246;-77
2022/12/10 01:24:21;;;;;;;48.63;24.53;;;0.60;99.90;;;;;;8362032;28;20189;-76
2022/12/10 01:28:22;;;;;;;56.80;28.73;;;0.60;99.90;;;;;;8371166;28;20235;-74
2022/12/10 01:32:23;;;;;;;43.87;24.10;;;0.60;99.90;;;;;;8371369;28;20926;-79
2022/12/10 01:36:29;;;;;;;79.63;37.17;;;0.60;99.90;;;;;;8370007;28;20186;-76
2022/12/10 01:40:30;;;;;;;69.43;34.03;;;0.60;1.00;;;;;;8371450;28;20189;-77
2022/12/10 01:44:31;;;;;;;75.43;36.50;;;0.60;1.00;;;;;;8367480;28;20178;-78
2022/12/10 01:48:32;;;;;;;47.67;24.73;;;0.60;99.90;;;;;;8368148;28;20276;-78
2022/12/10 01:52:33;;;;;;;76.90;36.10;;;0.60;99.90;;;;;;8372027;28;20244;-76
2022/12/10 01:56:38;;;;;;;42.37;23.53;;;0.60;68.70;;;;;;8371654;28;20182;-77
2022/12/10 02:00:44;;;;;;;44.13;22.73;;;0.70;1.00;;;;;;8370079;28;20184;-74
2022/12/10 02:04:51;;;;;;;41.27;21.67;;;0.60;1.00;;;;;;8361565;28;20200;-78
2022/12/10 02:09:05;;;;;;;49.73;27.27;;;0.60;1.00;;;;;;8370426;28;20186;-76
2022/12/10 02:13:20;;;;;;;40.20;21.80;;;0.60;1.00;;;;;;8371340;28;20292;-77
2022/12/10 02:17:26;;;;;;;44.10;23.47;;;0.60;1.00;;;;;;8380319;28;20181;-77
2022/12/10 02:21:35;;;;;;;47.13;25.37;;;0.60;1.00;;;;;;8369334;28;20194;-78
2022/12/10 02:25:58;;;;;;;43.97;22.87;;;0.60;1.00;;;;;;8369025;28;20186;-79
2022/12/10 02:30:01;;;;;;;41.43;22.40;;;0.60;1.00;;;;;;8368673;28;20185;-79
2022/12/10 02:34:05;;;;;;;38.33;21.30;;;0.60;1.00;;;;;;8383586;28;20213;-76
2022/12/10 02:38:34;;;;;;;44.33;22.33;;;0.60;1.00;;;;;;8376133;28;20178;-79
2022/12/10 02:42:39;;;;;;;40.03;22.77;;;0.60;1.00;;;;;;8373130;28;20201;-79
2022/12/10 02:46:44;;;;;;;45.47;22.37;;;0.60;1.00;;;;;;8389181;28;20196;-75
2022/12/10 02:50:45;;;;;;;38.93;21.80;;;0.60;1.00;;;;;;8372464;28;20207;-78
2022/12/10 02:54:48;;;;;;;40.57;20.67;;;0.60;1.00;;;;;;8370425;28;20197;-75
2022/12/10 02:59:16;;;;;;;38.87;21.20;;;0.60;1.00;;;;;;8375008;28;20219;-78
2022/12/10 03:03:31;;;;;;;42.30;22.87;;;0.60;1.00;;;;;;8373415;28;20480;-74
2022/12/10 03:07:39;;;;;;;43.60;21.40;;;0.60;1.00;;;;;;8374611;28;20185;-75
2022/12/10 03:11:42;;;;;;;40.53;21.87;;;0.60;1.00;;;;;;8369880;28;20212;-75
2022/12/10 03:15:45;;;;;;;42.47;21.07;;;0.60;1.00;;;;;;8389262;28;20181;-77
2022/12/10 03:19:49;;;;;;;37.43;20.80;;;0.60;1.00;;;;;;8371340;28;20194;-75
2022/12/10 03:23:51;;;;;;;39.67;22.23;;;0.60;1.00;;;;;;8370876;28;20209;-76
2022/12/10 03:27:54;;;;;;;41.10;22.90;;;0.60;1.00;;;;;;8373176;28;20189;-79
2022/12/10 03:31:58;;;;;;;40.83;22.73;;;0.60;1.00;;;;;;8367144;28;20233;-77
2022/12/10 03:35:59;;;;;;;41.60;23.60;;;0.60;1.00;;;;;;8373861;28;20178;-77
2022/12/10 03:40:01;;;;;;;42.07;22.70;;;0.70;1.00;;;;;;8369329;28;20188;-74
2022/12/10 03:44:02;;;;;;;39.80;21.27;;;0.60;1.00;;;;;;8376034;28;20192;-77
2022/12/10 03:48:04;;;;;;;42.67;22.33;;;0.60;1.00;;;;;;8373775;28;20200;-79
2022/12/10 03:52:05;;;;;;;40.30;23.73;;;0.50;14.90;;;;;;8374276;28;20209;-74
2022/12/10 03:56:06;;;;;;;46.83;24.80;;;0.50;99.90;;;;;;8370210;28;20182;-75
2022/12/10 04:00:07;;;;;;;47.20;24.63;;;0.50;99.90;;;;;;8370533;28;20230;-78
2022/12/10 04:04:09;;;;;;;46.57;24.67;;;0.50;99.90;;;;;;8372028;28;20211;-79
2022/12/10 04:08:10;;;;;;;41.17;23.80;;;0.60;99.90;;;;;;8370628;28;20415;-75
2022/12/10 04:12:11;;;;;;;47.13;24.23;;;0.60;99.90;;;;;;8371421;28;20232;-75
2022/12/10 04:16:26;;;;;;;53.17;28.93;;;0.60;99.90;;;;;;8371810;28;20185;-75
2022/12/10 04:29:07;;;;;;;55.03;26.00;;;0.50;1.00;;;;;;8368647;28;20233;-75
2022/12/10 04:33:08;;;;;;;68.00;34.40;;;0.60;1.00;;;;;;8370288;28;20321;-76
2022/12/10 04:37:10;;;;;;;71.43;31.33;;;0.50;99.90;;;;;;8368734;28;20213;-77
2022/12/10 04:41:15;;;;;;;55.57;28.73;;;0.50;99.90;;;;;;8370791;28;20242;-75
2022/12/10 04:45:16;;;;;;;54.60;32.03;;;0.60;1.00;;;;;;8364509;28;20182;-79
2022/12/10 04:49:17;;;;;;;50.97;28.23;;;0.50;1.00;;;;;;8373586;28;20308;-77
2022/12/10 04:53:18;;;;;;;52.17;26.63;;;0.50;1.00;;;;;;8367568;28;20220;-75
2022/12/10 04:57:18;;;;;;;52.53;27.90;;;0.50;99.90;;;;;;8369471;28;20202;-77
2022/12/10 05:01:19;;;;;;;50.93;27.50;;;0.50;1.00;;;;;;8370546;28;20189;-77
2022/12/10 05:05:20;;;;;;;58.47;29.43;;;0.50;99.90;;;;;;8369677;28;20239;-77
2022/12/10 05:09:22;;;;;;;48.67;27.57;;;0.50;99.90;;;;;;8374569;28;20340;-79
2022/12/10 05:13:23;;;;;;;55.27;30.07;;;0.60;1.00;;;;;;8366866;28;20336;-78
2022/12/10 05:17:24;;;;;;;51.07;28.40;;;0.50;99.90;;;;;;8372127;28;20188;-75
2022/12/10 05:25:52;;;;;;;47.43;25.63;;;0.60;99.90;;;;;;8368215;28;20215;-75
2022/12/10 05:29:53;;;;;;;67.23;33.40;;;0.60;99.90;;;;;;8365118;28;20189;-75
2022/12/10 05:33:56;;;;;;;64.30;31.90;;;0.60;99.90;;;;;;8377070;28;20221;-76
2022/12/10 05:37:56;;;;;;;54.20;29.30;;;0.60;1.00;;;;;;8372519;28;20181;-79
2022/12/10 05:41:57;;;;;;;72.63;36.67;;;0.60;1.00;;;;;;8364027;28;20288;-75
2022/12/10 05:46:03;;;;;;;67.07;34.00;;;0.60;1.00;;;;;;8365869;28;20262;-75
2022/12/10 05:50:04;;;;;;;65.97;33.13;;;0.60;1.00;;;;;;8379007;28;20260;-75
2022/12/10 05:54:06;;;;;;;55.63;30.37;;;0.60;1.00;;;;;;8369346;28;20269;-79
2022/12/10 05:58:07;;;;;;;58.00;31.43;;;0.60;9.50;;;;;;8367725;28;20206;-80
2022/12/10 06:02:08;;;;;;;60.27;31.43;;;0.60;99.90;;;;;;8372723;28;20307;-75
2022/12/10 06:06:10;;;;;;;63.80;33.70;;;0.60;99.90;;;;;;8370887;28;20257;-74
2022/12/10 06:10:11;;;;;;;86.23;38.93;;;0.60;99.90;;;;;;8371923;28;20193;-77
2022/12/10 06:14:12;;;;;;;69.43;34.73;;;0.60;1.00;;;;;;8371459;28;20213;-79
2022/12/10 06:18:13;;;;;;;61.40;30.80;;;0.60;1.00;;;;;;8370702;28;20184;-76
2022/12/10 06:22:17;;;;;;;58.03;33.33;;;0.60;1.00;;;;;;8390293;28;20185;-76
2022/12/10 06:26:20;;;;;;;65.17;34.23;;;0.70;1.00;;;;;;8386646;28;20197;-75
2022/12/10 06:30:21;;;;;;;70.40;35.43;;;0.70;1.00;;;;;;8378622;28;20189;-75
2022/12/10 06:34:22;;;;;;;76.07;38.83;;;0.70;1.00;;;;;;8376244;28;20323;-74
2022/12/10 06:38:23;;;;;;;76.07;38.13;;;0.70;1.00;;;;;;8370849;28;20613;-79
2022/12/10 06:42:24;;;;;;;65.47;32.17;;;0.70;1.00;;;;;;8370118;28;20193;-75
2022/12/10 06:46:29;;;;;;;78.03;37.47;;;0.70;1.00;;;;;;8378475;28;20185;-76
2022/12/10 06:50:30;;;;;;;80.47;40.07;;;0.70;1.00;;;;;;8368511;28;20181;-75
2022/12/10 06:54:31;;;;;;;71.57;34.50;;;0.70;1.00;;;;;;8386113;28;20502;-75
2022/12/10 06:58:33;;;;;;;67.30;32.67;;;0.70;18.90;;;;;;8370165;28;20275;-78
2022/12/10 07:02:34;;;;;;;68.27;35.90;;;0.70;63.80;;;;;;8368365;28;20196;-77
2022/12/10 07:06:35;;;;;;;71.10;34.93;;;0.70;68.60;;;;;;8384315;28;20624;-75
2022/12/10 07:10:37;;;;;;;65.43;31.30;;;0.70;65.00;;;;;;8370399;28;20186;-78
2022/12/10 07:14:38;;;;;;;82.33;42.50;;;0.80;16.80;;;;;;8370833;28;20320;-74
2022/12/10 07:18:38;;;;;;;100.73;54.77;;;0.80;1.00;;;;;;8368110;28;20188;-79
2022/12/10 07:22:39;;;;;;;75.93;41.90;;;0.70;1.00;;;;;;8371075;28;20280;-76
2022/12/10 07:26:43;;;;;;;76.90;39.07;;;0.80;1.00;;;;;;8370709;28;20189;-77
2022/12/10 07:30:44;;;;;;;82.97;41.27;;;0.80;1.00;;;;;;8376907;28;20190;-77
2022/12/10 07:34:44;;;;;;;77.30;36.97;;;0.80;1.00;;;;;;8373225;28;20308;-77
2022/12/10 07:38:46;;;;;;;101.90;43.63;;;0.80;1.00;;;;;;8374195;28;20207;-76
2022/12/10 07:42:47;;;;;;;88.80;40.90;;;0.80;1.00;;;;;;8374960;28;20174;-78
2022/12/10 07:46:49;;;;;;;66.23;32.33;;;0.80;1.00;;;;;;8367871;28;20276;-78
2022/12/10 07:50:56;;;;;;;60.27;31.00;;;0.80;99.90;;;;;;8372120;28;20178;-80
2022/12/10 07:54:57;;;;;;;59.20;31.93;;;0.90;99.90;;;;;;8383982;28;20261;-78
2022/12/10 07:58:58;;;;;;;62.63;33.63;;;0.90;48.10;;;;;;8378426;28;20285;-77
2022/12/10 08:02:59;;;;;;;61.47;33.80;;;0.90;99.90;;;;;;8370002;28;20288;-75
2022/12/10 08:07:00;;;;;;;99.27;48.70;;;0.90;99.90;;;;;;8375039;28;20207;-75
2022/12/10 08:11:02;;;;;;;103.53;50.40;;;0.90;99.90;;;;;;8372796;28;20189;-78
2022/12/10 08:15:06;;;;;;;64.67;31.73;;;0.90;1.00;;;;;;8380804;28;20197;-75
2022/12/10 08:19:06;;;;;;;67.60;33.93;;;1.00;1.00;;;;;;8374310;28;20271;-78
2022/12/10 08:23:07;;;;;;;60.60;33.33;;;1.00;1.00;;;;;;8376546;28;20186;-78
2022/12/10 08:27:08;;;;;;;75.13;42.50;;;1.00;1.00;;;;;;8374747;28;20576;-79
2022/12/10 08:31:11;;;;;;;70.10;37.17;;;1.00;1.00;;;;;;8373139;28;20186;-79
2022/12/10 08:35:12;;;;;;;106.57;53.53;;;1.00;99.90;;;;;;8372743;28;20205;-80
2022/12/10 08:39:16;;;;;;;65.17;33.03;;;1.00;99.90;;;;;;8367320;28;20170;-79
2022/12/10 08:43:17;;;;;;;59.70;29.03;;;1.00;1.00;;;;;;8388268;28;20192;-78
2022/12/10 08:47:18;;;;;;;55.87;29.10;;;1.00;99.90;;;;;;8365340;28;20190;-76
2022/12/10 08:51:19;;;;;;;53.63;28.33;;;1.00;99.90;;;;;;8364385;28;20201;-74
2022/12/10 08:55:20;;;;;;;61.03;29.77;;;1.00;90.60;;;;;;8364876;28;20200;-76
2022/12/10 08:59:21;;;;;;;72.37;36.70;;;1.10;99.90;;;;;;8370412;28;20207;-80
2022/12/10 09:03:23;;;;;;;84.27;40.93;;;1.10;76.90;;;;;;8365840;28;20217;-78
2022/12/10 09:07:24;;;;;;;61.03;32.83;;;1.20;99.90;;;;;;8369462;28;20260;-77
2022/12/10 09:11:28;;;;;;;94.10;49.53;;;1.20;1.00;;;;;;8363445;28;20185;-78
2022/12/10 09:15:29;;;;;;;118.33;64.53;;;1.20;99.90;;;;;;8372347;28;20264;-75
2022/12/10 09:19:30;;;;;;;73.70;39.57;;;1.20;99.90;;;;;;8367995;28;20178;-79
2022/12/10 09:23:31;;;;;;;62.23;31.77;;;1.20;1.00;;;;;;8366609;28;20185;-75
2022/12/10 09:27:32;;;;;;;55.97;31.60;;;1.20;99.90;;;;;;8367125;28;20189;-78
2022/12/10 09:31:33;;;;;;;47.40;28.43;;;1.20;99.90;;;;;;8365954;28;20189;-79
2022/12/10 09:35:34;;;;;;;49.27;28.10;;;1.20;3.60;;;;;;8372576;28;20197;-77
2022/12/10 09:39:35;;;;;;;51.20;31.13;;;1.20;1.00;;;;;;8369333;28;20212;-79
2022/12/10 09:43:56;;;;;;;52.27;30.63;;;1.20;1.00;;;;;;8373113;28;20186;-78
2022/12/10 09:48:21;;;;;;;40.30;24.27;;;1.20;99.90;;;;;;8361748;28;20205;-75
2022/12/10 09:52:26;;;;;;;47.47;25.93;;;1.20;99.90;;;;;;8380771;28;20201;-79
2022/12/10 09:56:33;;;;;;;41.37;23.63;;;1.20;99.90;;;;;;8362347;28;20184;-79
2022/12/10 10:00:39;;;;;;;65.50;32.93;;;1.20;99.90;;;;;;8366959;28;20184;-75
2022/12/10 10:04:40;;;;;;;59.37;31.90;;;1.20;99.90;;;;;;8374778;28;20265;-77
2022/12/10 10:08:53;;;;;;;42.43;23.93;;;1.20;99.90;;;;;;8367126;28;20211;-75
2022/12/10 10:13:18;;;;;;;49.03;29.20;;;1.20;46.30;;;;;;8367869;28;20194;-74
2022/12/10 10:17:26;;;;;;;58.77;30.23;;;1.20;1.00;;;;;;8356824;28;20246;-77
2022/12/10 10:21:32;;;;;;;37.17;21.07;;;1.10;1.00;;;;;;8368273;28;20265;-77
2022/12/10 10:25:33;;;;;;;44.43;25.77;;;1.10;1.00;;;;;;8367982;28;20185;-75
2022/12/10 10:29:34;;;;;;;52.37;28.03;;;1.10;1.00;;;;;;8365858;28;20186;-75
2022/12/10 10:33:56;;;;;;;43.37;23.00;;;1.10;1.00;;;;;;8364716;28;20206;-75
2022/12/10 10:38:00;;;;;;;53.17;28.67;;;1.20;1.00;;;;;;8370199;28;20208;-80
2022/12/10 10:42:09;;;;;;;42.47;23.27;;;1.10;1.00;;;;;;8366475;28;20189;-77
2022/12/10 10:46:23;;;;;;;37.07;22.33;;;1.10;1.00;;;;;;8364246;28;20276;-77
2022/12/10 10:50:27;;;;;;;36.80;22.80;;;1.10;1.00;;;;;;8376059;28;20189;-77
2022/12/10 10:54:45;;;;;;;55.73;29.70;;;1.10;1.00;;;;;;8377090;28;20312;-76
2022/12/10 10:59:08;;;;;;;78.97;40.17;;;1.10;1.00;;;;;;8376158;28;20201;-79
2022/12/10 11:03:10;;;;;;;62.47;34.80;;;1.00;99.90;;;;;;8367632;28;20192;-74
2022/12/10 11:07:30;;;;;;;76.63;38.20;;;1.00;59.10;;;;;;8371921;28;20185;-76
2022/12/10 11:11:36;;;;;;;45.33;25.60;;;1.00;73.50;;;;;;8371106;28;20273;-78
2022/12/10 11:15:40;;;;;;;49.47;29.17;;;1.00;56.10;;;;;;8385588;28;20561;-79
2022/12/10 11:20:00;;;;;;;41.80;24.27;;;1.10;25.20;;;;;;8372291;28;20269;-75
2022/12/10 11:24:11;;;;;;;49.53;28.17;;;1.10;1.00;;;;;;8364716;28;20173;-75
2022/12/10 11:28:27;;;;;;;58.17;32.77;;;1.10;1.00;;;;;;8369106;28;20159;-79
2022/12/10 11:32:40;;;;;;;62.77;33.77;;;1.10;1.00;;;;;;8372285;28;20213;-76
2022/12/10 11:36:55;;;;;;;77.50;39.27;;;1.00;1.00;;;;;;8371818;28;20190;-76
2022/12/10 11:41:34;;;;;;;61.50;32.07;;;1.00;25.90;;;;;;8383953;28;20205;-79
2022/12/10 11:45:53;;;;;;;52.83;29.53;;;1.00;99.90;;;;;;8368761;28;20190;-77
2022/12/10 11:50:02;;;;;;;73.30;37.63;;;1.00;48.80;;;;;;8367532;28;20742;-76
2022/12/10 11:54:21;;;;;;;63.17;33.27;;;1.00;91.40;;;;;;8385037;28;20209;-77
2022/12/10 11:58:43;;;;;;;89.73;46.97;;;1.00;99.90;;;;;;8367266;28;20237;-76
2022/12/10 12:02:59;;;;;;;101.33;50.07;;;1.00;99.90;;;;;;8371509;28;20579;-78
2022/12/10 12:07:00;;;;;;;136.60;64.17;;;0.90;99.90;;;;;;8366519;28;20182;-77
2022/12/10 12:11:31;;;;;;;69.93;35.97;;;0.80;99.90;;;;;;8372427;28;20228;-75
2022/12/10 12:16:00;;;;;;;84.07;42.77;;;0.90;99.90;;;;;;8369174;28;20478;-75
2022/12/10 12:20:17;;;;;;;113.63;50.73;;;0.80;99.90;;;;;;8367563;28;20197;-78
2022/12/10 12:24:34;;;;;;;62.97;32.17;;;0.70;99.90;;;;;;8368381;28;20184;-74
2022/12/10 12:29:02;;;;;;;68.70;35.47;;;0.80;99.90;;;;;;8371343;28;20186;-75
2022/12/10 12:33:11;;;;;;;75.50;37.17;;;0.70;99.90;;;;;;8367315;28;20293;-75
2022/12/10 12:37:17;;;;;;;105.93;46.00;;;0.70;99.90;;;;;;8373047;28;20261;-77
2022/12/10 12:41:40;;;;;;;76.70;35.97;;;0.60;99.90;;;;;;8384674;28;20166;-75
2022/12/10 12:45:44;;;;;;;59.47;30.10;;;0.60;99.90;;;;;;8385173;28;20198;-77
2022/12/10 12:49:48;;;;;;;54.57;27.93;;;0.60;99.90;;;;;;8366975;28;20185;-79
2022/12/10 12:53:49;;;;;;;59.77;33.37;;;0.60;99.90;;;;;;8370126;28;20208;-79
2022/12/10 12:58:27;;;;;;;49.80;26.37;;;0.60;99.90;;;;;;8367494;28;20291;-80
2022/12/10 13:02:47;;;;;;;50.00;25.20;;;0.60;99.90;;;;;;8368939;28;20190;-78
2022/12/10 13:07:12;;;;;;;50.60;26.23;;;0.60;99.90;;;;;;8376359;28;20278;-77
2022/12/10 13:11:27;;;;;;;49.40;27.37;;;0.60;99.90;;;;;;8370411;28;20181;-80
2022/12/10 13:15:37;;;;;;;74.90;38.73;;;0.60;99.90;;;;;;8371553;28;20321;-79
2022/12/10 13:19:41;;;;;;;54.13;30.43;;;0.60;99.90;;;;;;8383324;28;20185;-75
2022/12/10 13:24:09;;;;;;;60.70;30.80;;;0.60;99.90;;;;;;8376432;28;20558;-79
2022/12/10 13:28:27;;;;;;;60.47;29.43;;;0.60;99.90;;;;;;8366809;28;20170;-74
2022/12/10 13:32:33;;;;;;;57.40;26.60;;;0.60;99.90;;;;;;8377430;28;20220;-75
2022/12/10 13:37:00;;;;;;;64.90;30.57;;;0.60;99.90;;;;;;8374983;28;20178;-75
2022/12/10 13:45:30;;;;;;;61.27;31.77;;;0.50;99.90;;;;;;8367721;28;20196;-77
2022/12/10 13:49:43;;;;;;;68.57;35.40;;;0.50;99.90;;;;;;8365636;28;20196;-78
2022/12/10 13:54:08;;;;;;;62.70;33.03;;;0.50;99.90;;;;;;8366776;28;20224;-75
2022/12/10 13:58:22;;;;;;;59.20;29.23;;;0.50;99.90;;;;;;8372541;28;20198;-79
2022/12/10 14:03:01;;;;;;;49.50;25.97;;;0.50;99.90;;;;;;8383213;28;20189;-75
2022/12/10 14:07:03;;;;;;;52.00;26.40;;;0.50;99.90;;;;;;8379398;28;20185;-75
2022/12/10 14:11:10;;;;;;;71.20;34.07;;;0.40;99.90;;;;;;8376564;28;20193;-78
2022/12/10 14:15:23;;;;;;;69.67;34.70;;;0.40;99.90;;;;;;8372191;28;20208;-80
2022/12/10 14:19:27;;;;;;;72.57;34.73;;;0.40;1.00;;;;;;8373013;28;20264;-79
2022/12/10 14:23:33;;;;;;;80.07;38.50;;;0.40;1.00;;;;;;8370297;28;20213;-76
2022/12/10 14:27:36;;;;;;;70.30;32.97;;;0.40;1.00;;;;;;8364933;28;20411;-75
2022/12/10 14:31:43;;;;;;;68.90;34.43;;;0.40;1.00;;;;;;8378670;28;20190;-78
2022/12/10 14:35:51;;;;;;;57.57;28.47;;;0.40;1.00;;;;;;8380207;28;20203;-77
2022/12/10 14:39:52;;;;;;;60.97;28.83;;;0.30;1.00;;;;;;8392303;28;20184;-78
2022/12/10 14:43:54;;;;;;;53.00;27.30;;;0.30;1.00;;;;;;8372980;28;20427;-79
2022/12/10 14:47:56;;;;;;;57.47;34.40;;;0.30;94.90;;;;;;8381205;28;20189;-80
2022/12/10 14:51:57;;;;;;;53.43;29.90;;;0.30;99.90;;;;;;8375888;28;20186;-75
2022/12/10 14:56:06;;;;;;;61.63;32.37;;;0.20;99.90;;;;;;8388884;28;20190;-79
2022/12/10 15:00:16;;;;;;;48.77;26.97;;;0.20;1.00;;;;;;8396531;28;20300;-78
2022/12/10 15:04:19;;;;;;;61.97;31.33;;;0.20;99.90;;;;;;8406732;28;20533;-77
2022/12/10 15:08:21;;;;;;;64.60;33.43;;;0.10;1.00;;;;;;8394523;28;20281;-76
2022/12/10 15:12:45;;;;;;;58.03;32.60;;;0.10;97.40;;;;;;8397652;28;20213;-79
2022/12/10 15:16:47;;;;;;;56.73;29.17;;;0.20;99.90;;;;;;8389844;28;20192;-79
2022/12/10 15:20:51;;;;;;;59.10;31.07;;;0.10;15.20;;;;;;8397792;28;20264;-79
2022/12/10 15:24:52;;;;;;;49.50;27.13;;;0.10;99.90;;;;;;8395743;28;20182;-78
2022/12/10 15:29:16;;;;;;;45.77;25.67;;;0.20;99.90;;;;;;8380014;28;20241;-78
2022/12/10 15:33:34;;;;;;;57.73;29.63;;;0.10;99.90;;;;;;8379321;28;20300;-79
2022/12/10 15:37:39;;;;;;;43.93;24.90;;;0.10;99.90;;;;;;8381005;28;20188;-79
2022/12/10 15:41:52;;;;;;;59.37;29.43;;;0.00;99.90;;;;;;8386121;28;20201;-76
2022/12/10 15:45:53;;;;;;;50.77;26.97;;;0.00;38.10;;;;;;8374659;28;20190;-74
2022/12/10 15:49:55;;;;;;;51.70;25.27;;;0.00;99.90;;;;;;8378465;28;20229;-78
2022/12/10 15:53:56;;;;;;;59.93;29.40;;;0.00;62.00;;;;;;8378680;28;20312;-79
2022/12/10 15:57:57;;;;;;;50.90;26.03;;;0.00;99.90;;;;;;8375610;28;20574;-75
2022/12/10 16:01:59;;;;;;;52.80;29.47;;;-0.10;1.00;;;;;;8374794;28;20184;-75
2022/12/10 16:06:00;;;;;;;51.07;30.13;;;-0.10;99.90;;;;;;8375421;28;20174;-78
2022/12/10 16:10:02;;;;;;;56.67;31.43;;;-0.10;1.00;;;;;;8380806;28;20768;-76
2022/12/10 16:14:03;;;;;;;61.53;32.03;;;0.00;11.00;;;;;;8384076;28;20209;-74
2022/12/10 16:18:05;;;;;;;57.93;30.17;;;0.00;25.00;;;;;;8374473;28;20178;-76
2022/12/10 16:22:06;;;;;;;53.63;28.37;;;0.00;13.10;;;;;;8378232;28;20189;-77
2022/12/10 16:26:17;;;;;;;73.47;37.13;;;0.00;8.50;;;;;;8370281;28;20236;-75
2022/12/10 16:30:35;;;;;;;55.10;26.60;;;0.00;1.00;;;;;;8367354;28;20412;-75
2022/12/10 16:34:37;;;;;;;48.83;26.53;;;-0.10;1.00;;;;;;8377333;28;20228;-77
2022/12/10 16:38:41;;;;;;;61.57;30.37;;;-0.10;99.90;;;;;;8370004;28;20182;-75
2022/12/10 16:42:42;;;;;;;48.73;29.73;;;-0.10;99.90;;;;;;8371851;28;20227;-78
2022/12/10 16:46:43;;;;;;;55.60;25.63;;;-0.10;99.90;;;;;;8372223;28;20308;-76
2022/12/10 16:50:45;;;;;;;47.50;24.23;;;-0.10;1.00;;;;;;8374866;28;20203;-75
2022/12/10 16:54:50;;;;;;;52.27;25.23;;;-0.10;99.90;;;;;;8388906;28;20709;-79
2022/12/10 16:58:50;;;;;;;60.13;29.03;;;-0.20;99.90;;;;;;8369014;28;20226;-79
2022/12/10 17:02:52;;;;;;;55.47;29.13;;;-0.20;1.00;;;;;;8375196;28;20185;-79
2022/12/10 17:06:53;;;;;;;62.30;31.77;;;-0.20;50.70;;;;;;8367247;28;20229;-79
2022/12/10 17:15:15;;;;;;;47.43;24.80;;;-0.20;99.90;;;;;;8372282;28;20211;-75
2022/12/10 17:19:17;;;;;;;71.27;35.73;;;-0.20;99.90;;;;;;8377854;28;20281;-75
2022/12/10 17:23:19;;;;;;;55.07;28.83;;;-0.20;99.90;;;;;;8373409;28;20194;-79
2022/12/10 17:27:20;;;;;;;94.03;44.63;;;-0.20;99.90;;;;;;8371303;28;20190;-79
2022/12/10 17:31:21;;;;;;;77.43;40.40;;;-0.10;99.90;;;;;;8375342;28;20185;-77
2022/12/10 17:35:22;;;;;;;86.87;44.20;;;-0.10;99.90;;;;;;8375807;28;20251;-79
2022/12/10 17:39:28;;;;;;;79.53;40.33;;;-0.10;99.90;;;;;;8378045;28;20244;-78
2022/12/10 17:43:29;;;;;;;80.13;33.17;;;0.00;99.90;;;;;;8367326;28;20191;-76
2022/12/10 17:47:32;;;;;;;73.33;34.37;;;-0.10;99.90;;;;;;8371488;28;20193;-76
2022/12/10 17:51:33;;;;;;;72.83;33.90;;;-0.10;99.90;;;;;;8373134;28;20192;-80
2022/12/10 17:55:35;;;;;;;100.13;43.80;;;-0.10;99.90;;;;;;8382492;28;20208;-81
2022/12/10 17:59:36;;;;;;;67.30;33.53;;;-0.10;99.90;;;;;;8372306;28;20271;-79
2022/12/10 18:03:38;;;;;;;69.90;32.77;;;-0.10;99.90;;;;;;8380062;28;20192;-80
2022/12/10 18:07:39;;;;;;;67.10;31.90;;;-0.10;99.90;;;;;;8382400;28;20186;-75
2022/12/10 18:11:43;;;;;;;74.63;34.50;;;-0.10;99.90;;;;;;8379934;28;20192;-76
2022/12/10 18:15:43;;;;;;;63.17;30.33;;;-0.10;99.90;;;;;;8378450;28;20213;-76
2022/12/10 18:19:44;;;;;;;62.50;30.83;;;-0.10;99.90;;;;;;8373445;28;20272;-77
2022/12/10 18:23:46;;;;;;;81.20;40.20;;;-0.20;99.90;;;;;;8381746;28;20181;-80
2022/12/10 18:27:47;;;;;;;74.57;39.43;;;-0.10;99.90;;;;;;8382358;28;20185;-78
2022/12/10 18:31:48;;;;;;;76.80;39.13;;;-0.10;99.90;;;;;;8380202;28;20192;-76
2022/12/10 18:35:49;;;;;;;94.87;43.73;;;-0.10;99.90;;;;;;8376462;28;20209;-79
2022/12/10 18:39:50;;;;;;;105.80;49.20;;;-0.10;99.90;;;;;;8379522;28;20183;-75
2022/12/10 18:43:52;;;;;;;98.97;45.37;;;-0.10;99.90;;;;;;8377656;28;20174;-75
2022/12/10 18:47:52;;;;;;;87.70;45.07;;;0.00;99.90;;;;;;8375359;28;20174;-78
2022/12/10 18:51:53;;;;;;;107.03;55.80;;;0.00;99.90;;;;;;8378391;28;20210;-79
2022/12/10 18:55:55;;;;;;;70.53;39.67;;;0.00;99.90;;;;;;8379389;28;20177;-79
2022/12/10 18:59:56;;;;;;;90.10;45.13;;;0.00;99.90;;;;;;8377024;28;20225;-80
2022/12/10 19:03:58;;;;;;;74.53;39.77;;;0.00;99.90;;;;;;8382806;28;20184;-76
2022/12/10 19:08:01;;;;;;;89.03;43.47;;;0.00;99.90;;;;;;8380211;28;20189;-77
2022/12/10 19:12:03;;;;;;;78.73;40.93;;;0.00;99.90;;;;;;8375568;28;20182;-79
2022/12/10 19:16:09;;;;;;;79.57;40.87;;;0.00;99.90;;;;;;8377737;28;20181;-76
2022/12/10 19:20:25;;;;;;;101.03;47.93;;;-0.10;4.30;;;;;;8372856;28;20189;-80
2022/12/10 19:24:26;;;;;;;116.93;53.43;;;-0.10;1.00;;;;;;8383708;28;20189;-76
2022/12/10 19:28:29;;;;;;;126.70;55.57;;;-0.10;1.00;;;;;;8368154;28;20189;-76
2022/12/10 19:32:30;;;;;;;94.17;47.10;;;0.00;1.00;;;;;;8385204;28;20313;-78
2022/12/10 19:36:32;;;;;;;85.70;45.17;;;-0.10;1.00;;;;;;8389216;28;20174;-79
2022/12/10 19:40:36;;;;;;;85.00;41.10;;;0.00;1.00;;;;;;8394317;28;20209;-77
2022/12/10 19:44:38;;;;;;;109.87;48.40;;;-0.10;1.00;;;;;;8366961;28;20185;-75
2022/12/10 19:48:39;;;;;;;65.20;31.80;;;-0.10;1.00;;;;;;8391376;28;20189;-79
2022/12/10 19:52:41;;;;;;;60.93;34.67;;;-0.20;1.00;;;;;;8386358;28;20201;-81
2022/12/10 19:56:43;;;;;;;61.17;35.03;;;-0.30;35.90;;;;;;8391611;28;20264;-79
2022/12/10 20:00:47;;;;;;;63.20;33.80;;;-0.30;99.90;;;;;;8371064;28;20196;-79
2022/12/10 20:04:48;;;;;;;61.73;32.17;;;-0.30;99.90;;;;;;8382644;28;20276;-75
2022/12/10 20:08:49;;;;;;;61.33;33.07;;;-0.30;99.90;;;;;;8385022;28;20189;-78
2022/12/10 20:12:51;;;;;;;65.87;33.80;;;-0.40;99.90;;;;;;8390614;28;20217;-76
2022/12/10 20:16:52;;;;;;;63.23;31.67;;;-0.40;99.90;;;;;;8385067;28;20718;-79
2022/12/10 20:20:53;;;;;;;65.60;32.73;;;-0.40;99.90;;;;;;8382027;28;20178;-77
2022/12/10 20:24:57;;;;;;;67.90;36.00;;;-0.40;99.90;;;;;;8386093;28;20272;-80
2022/12/10 20:29:02;;;;;;;63.87;31.97;;;-0.40;99.90;;;;;;8376916;28;20182;-75
2022/12/10 20:33:03;;;;;;;62.40;32.63;;;-0.40;99.90;;;;;;8385556;28;20209;-76
2022/12/10 20:37:05;;;;;;;69.67;34.37;;;-0.50;99.90;;;;;;8380588;28;20196;-79
2022/12/10 20:41:06;;;;;;;65.67;35.43;;;-0.40;99.90;;;;;;8361588;28;20265;-80
2022/12/10 20:45:07;;;;;;;63.77;35.13;;;-0.40;99.90;;;;;;8379240;28;20185;-79
2022/12/10 20:49:14;;;;;;;74.73;37.07;;;-0.40;99.90;;;;;;8378902;28;20186;-78
2022/12/10 20:53:15;;;;;;;65.33;34.37;;;-0.40;99.90;;;;;;8390187;28;20205;-79
2022/12/10 20:57:18;;;;;;;74.47;38.03;;;-0.40;99.90;;;;;;8393862;28;20201;-81
2022/12/10 21:01:20;;;;;;;66.50;35.80;;;-0.30;99.90;;;;;;8374241;28;20177;-77
2022/12/10 21:05:23;;;;;;;77.17;38.70;;;-0.30;99.90;;;;;;8381105;28;20256;-76
2022/12/10 21:09:25;;;;;;;66.43;33.83;;;-0.30;99.90;;;;;;8369262;28;20216;-75
2022/12/10 21:13:28;;;;;;;76.07;39.70;;;-0.30;99.90;;;;;;8382475;28;20252;-76
2022/12/10 21:17:29;;;;;;;67.07;33.63;;;-0.30;99.90;;;;;;8382084;28;20186;-76
2022/12/10 21:21:30;;;;;;;74.17;37.00;;;-0.30;80.50;;;;;;8379313;28;20238;-76
2022/12/10 21:25:35;;;;;;;63.33;33.90;;;-0.30;1.00;;;;;;8379474;28;20289;-75